createdAt,value
2018-06-15T00:00:27.837Z,70.80
2018-06-15T00:03:01.028Z,71.00
2018-06-15T00:05:28.534Z,71.40
2018-06-15T00:07:55.928Z,71.40
2018-06-15T00:10:23.376Z,71.40
2018-06-15T00:12:50.794Z,72.00
2018-06-15T00:15:18.192Z,71.80
2018-06-15T00:17:45.626Z,71.40
2018-06-15T00:20:13.046Z,71.30
2018-06-15T00:22:40.494Z,71.30
2018-06-15T00:27:35.391Z,71.60
2018-06-15T00:30:02.851Z,71.80
2018-06-15T00:32:30.275Z,71.80
2018-06-15T00:34:57.666Z,72.00
2018-06-15T00:37:25.060Z,72.10
2018-06-15T00:39:52.469Z,71.90
2018-06-15T00:42:19.868Z,71.90
2018-06-15T00:44:47.389Z,71.70
2018-06-15T00:47:14.790Z,71.60
2018-06-15T00:49:42.178Z,71.60
2018-06-15T00:52:09.564Z,71.60
2018-06-15T00:54:36.991Z,71.80
2018-06-15T00:57:15.908Z,71.90
2018-06-15T00:59:43.292Z,72.10
2018-06-15T01:02:10.685Z,72.30
2018-06-15T01:04:38.107Z,72.30
2018-06-15T01:07:05.531Z,72.30
2018-06-15T01:09:32.941Z,72.20
2018-06-15T01:12:00.387Z,71.60
2018-06-15T01:14:27.815Z,72.20
2018-06-15T01:16:55.268Z,72.20
2018-06-15T01:19:22.662Z,72.30
2018-06-15T01:21:50.045Z,73.20
2018-06-15T01:24:17.433Z,72.10
2018-06-15T01:26:44.866Z,72.30
2018-06-15T01:29:12.258Z,72.20
2018-06-15T01:34:07.068Z,72.00
2018-06-15T01:36:34.474Z,71.70
2018-06-15T01:39:01.918Z,71.60
2018-06-15T01:41:29.352Z,71.40
2018-06-15T01:43:56.741Z,71.40
2018-06-15T01:46:24.177Z,71.30
2018-06-15T01:48:51.599Z,71.40
2018-06-15T01:51:18.992Z,71.50
2018-06-15T01:53:46.436Z,71.60
2018-06-15T01:56:13.825Z,71.70
2018-06-15T01:58:41.235Z,71.90
2018-06-15T02:01:08.691Z,71.80
2018-06-15T02:03:36.064Z,71.80
2018-06-15T02:06:03.500Z,72.00
2018-06-15T02:08:30.925Z,71.90
2018-06-15T02:10:58.344Z,71.90
2018-06-15T02:13:25.787Z,71.90
2018-06-15T02:15:53.143Z,71.70
2018-06-15T02:18:20.565Z,71.90
2018-06-15T02:20:47.950Z,71.80
2018-06-15T02:23:15.360Z,71.80
2018-06-15T02:25:42.768Z,71.80
2018-06-15T02:28:10.182Z,71.60
2018-06-15T02:30:37.588Z,71.50
2018-06-15T02:33:04.996Z,71.50
2018-06-15T02:35:32.387Z,71.40
2018-06-15T02:37:59.806Z,71.30
2018-06-15T02:40:27.242Z,71.30
2018-06-15T02:42:54.626Z,71.60
2018-06-15T02:45:22.073Z,71.60
2018-06-15T02:47:49.446Z,71.50
2018-06-15T02:50:16.837Z,71.60
2018-06-15T02:52:44.229Z,71.50
2018-06-15T02:55:11.742Z,71.30
2018-06-15T02:57:39.163Z,71.20
2018-06-15T03:00:06.582Z,71.10
2018-06-15T03:02:34.002Z,71.00
2018-06-15T03:05:01.396Z,70.90
2018-06-15T03:07:28.828Z,71.10
2018-06-15T03:09:56.291Z,71.00
2018-06-15T03:12:23.722Z,71.20
2018-06-15T03:14:51.159Z,71.20
2018-06-15T03:17:18.653Z,71.40
2018-06-15T03:19:46.062Z,71.80
2018-06-15T03:22:13.455Z,72.00
2018-06-15T03:24:40.880Z,72.50
2018-06-15T03:27:08.297Z,72.70
2018-06-15T03:29:35.678Z,73.10
2018-06-15T03:32:03.109Z,73.10
2018-06-15T03:34:30.499Z,72.90
2018-06-15T03:36:57.940Z,72.90
2018-06-15T03:39:25.344Z,72.70
2018-06-15T03:41:52.732Z,72.30
2018-06-15T03:44:20.159Z,72.00
2018-06-15T03:46:47.575Z,71.80
2018-06-15T03:49:15.060Z,71.60
2018-06-15T03:51:42.477Z,71.30
2018-06-15T03:56:37.301Z,71.30
2018-06-15T03:59:04.948Z,71.20
2018-06-15T04:01:32.359Z,71.10
2018-06-15T04:03:59.742Z,70.80
2018-06-15T04:06:27.126Z,71.30
2018-06-15T04:08:54.541Z,71.40
2018-06-15T04:11:21.951Z,71.60
2018-06-15T04:13:49.318Z,71.80
2018-06-15T04:16:16.755Z,71.90
2018-06-15T04:18:44.145Z,72.00
2018-06-15T04:21:11.591Z,72.30
2018-06-15T04:23:38.995Z,72.60
2018-06-15T04:26:06.393Z,72.80
2018-06-15T04:28:33.808Z,73.10
2018-06-15T04:31:01.536Z,73.10
2018-06-15T04:33:28.927Z,73.20
2018-06-15T04:35:56.341Z,73.20
2018-06-15T04:38:23.764Z,73.50
2018-06-15T04:43:18.551Z,73.90
2018-06-15T04:45:46.178Z,74.00
2018-06-15T04:48:13.608Z,74.20
2018-06-15T04:50:41.026Z,74.40
2018-06-15T04:53:08.432Z,74.60
2018-06-15T04:55:35.848Z,74.60
2018-06-15T04:58:03.255Z,74.50
2018-06-15T05:00:30.658Z,74.50
2018-06-15T05:02:58.040Z,74.50
2018-06-15T05:05:25.453Z,74.40
2018-06-15T05:07:52.864Z,74.40
2018-06-15T05:10:20.283Z,74.30
2018-06-15T05:12:47.716Z,74.10
2018-06-15T05:15:15.100Z,74.20
2018-06-15T05:17:42.491Z,74.20
2018-06-15T05:20:09.907Z,74.30
2018-06-15T05:22:37.314Z,74.40
2018-06-15T05:25:04.711Z,74.50
2018-06-15T05:27:32.110Z,74.70
2018-06-15T05:29:59.501Z,75.00
2018-06-15T05:32:26.897Z,75.00
2018-06-15T05:34:54.288Z,75.00
2018-06-15T05:37:21.687Z,74.90
2018-06-15T05:39:49.101Z,75.00
2018-06-15T05:42:16.508Z,74.90
2018-06-15T05:44:43.910Z,74.90
2018-06-15T05:47:11.294Z,74.80
2018-06-15T05:49:38.700Z,74.60
2018-06-15T05:52:06.128Z,75.50
2018-06-15T05:54:33.514Z,74.90
2018-06-15T05:57:00.926Z,75.20
2018-06-15T06:01:55.727Z,75.70
2018-06-15T06:04:23.143Z,75.30
2018-06-15T06:06:50.568Z,75.00
2018-06-15T06:09:17.963Z,74.80
2018-06-15T06:11:45.385Z,75.10
2018-06-15T06:14:12.801Z,75.00
2018-06-15T06:16:40.193Z,74.80
2018-06-15T06:19:07.611Z,75.00
2018-06-15T06:21:35.235Z,73.90
2018-06-15T06:24:02.650Z,73.50
2018-06-15T06:28:57.616Z,73.50
2018-06-15T06:31:25.017Z,73.60
2018-06-15T06:33:52.419Z,73.50
2018-06-15T06:36:19.810Z,73.40
2018-06-15T06:38:47.188Z,73.20
2018-06-15T06:41:14.582Z,73.00
2018-06-15T06:43:41.979Z,72.80
2018-06-15T06:46:09.415Z,73.00
2018-06-15T06:48:36.820Z,73.20
2018-06-15T06:51:04.242Z,73.10
2018-06-15T06:55:59.031Z,72.80
2018-06-15T06:58:26.422Z,72.40
2018-06-15T07:03:21.197Z,71.90
2018-06-15T07:05:48.604Z,71.50
2018-06-15T07:08:15.990Z,71.20
2018-06-15T07:10:43.399Z,70.80
2018-06-15T07:13:10.846Z,70.70
2018-06-15T07:15:38.215Z,72.00
2018-06-15T07:18:05.632Z,70.70
2018-06-15T07:20:33.034Z,70.30
2018-06-15T07:23:00.439Z,70.00
2018-06-15T07:25:27.839Z,69.40
2018-06-15T07:27:55.280Z,69.10
2018-06-15T07:30:22.665Z,69.70
2018-06-15T07:32:50.064Z,70.30
2018-06-15T07:35:17.500Z,71.00
2018-06-15T07:37:44.923Z,70.40
2018-06-15T07:40:12.309Z,69.50
2018-06-15T07:42:39.732Z,68.80
2018-06-15T07:45:07.128Z,68.50
2018-06-15T07:47:34.511Z,67.60
2018-06-15T07:50:02.151Z,68.40
2018-06-15T07:52:29.547Z,68.90
2018-06-15T07:54:56.955Z,68.90
2018-06-15T07:57:24.365Z,68.00
2018-06-15T07:59:51.755Z,67.00
2018-06-15T08:02:19.144Z,65.00
2018-06-15T08:04:46.568Z,63.70
2018-06-15T08:07:14.034Z,63.40
2018-06-15T08:09:41.426Z,62.40
2018-06-15T08:12:08.828Z,62.00
2018-06-15T08:14:36.257Z,61.50
2018-06-15T08:17:03.766Z,61.10
2018-06-15T08:19:31.155Z,61.30
2018-06-15T08:21:58.553Z,61.60
2018-06-15T08:24:25.951Z,61.20
2018-06-15T08:26:53.345Z,61.30
2018-06-15T08:29:20.764Z,60.90
2018-06-15T08:31:48.176Z,60.80
2018-06-15T08:34:15.560Z,60.60
2018-06-15T08:36:42.988Z,59.60
2018-06-15T08:39:11.583Z,58.50
2018-06-15T08:41:38.986Z,58.70
2018-06-15T08:44:06.394Z,58.60
2018-06-15T08:46:33.803Z,58.60
2018-06-15T08:51:28.620Z,59.30
2018-06-15T08:53:56.017Z,58.30
2018-06-15T08:56:23.430Z,57.90
2018-06-15T08:58:50.832Z,57.70
2018-06-15T09:01:18.238Z,57.40
2018-06-15T09:03:45.635Z,57.20
2018-06-15T09:06:13.065Z,57.60
2018-06-15T09:08:40.556Z,57.60
2018-06-15T09:11:07.985Z,57.00
2018-06-15T09:13:35.681Z,56.60
2018-06-15T09:16:03.268Z,56.20
2018-06-15T09:18:30.673Z,56.00
2018-06-15T09:20:58.136Z,55.40
2018-06-15T09:23:25.709Z,53.80
2018-06-15T09:25:53.683Z,53.30
2018-06-15T09:28:21.244Z,52.80
2018-06-15T09:30:48.793Z,53.20
2018-06-15T09:33:16.185Z,53.50
2018-06-15T09:35:43.600Z,53.70
2018-06-15T09:38:11.014Z,54.10
2018-06-15T09:40:38.404Z,53.50
2018-06-15T09:43:05.888Z,52.70
2018-06-15T09:45:33.329Z,52.30
2018-06-15T09:48:00.769Z,53.10
2018-06-15T09:50:28.172Z,53.40
2018-06-15T09:52:55.745Z,51.40
2018-06-15T09:55:23.107Z,51.80
2018-06-15T09:57:50.920Z,51.50
2018-06-15T10:00:24.121Z,50.80
2018-06-15T10:02:51.544Z,51.30
2018-06-15T10:05:19.118Z,51.90
2018-06-15T10:07:46.531Z,51.80
2018-06-15T10:10:13.948Z,52.00
2018-06-15T10:12:41.360Z,50.90
2018-06-15T10:15:08.748Z,51.30
2018-06-15T10:17:36.151Z,51.20
2018-06-15T10:20:03.859Z,50.50
2018-06-15T10:22:31.250Z,50.20
2018-06-15T10:24:58.673Z,49.30
2018-06-15T10:27:26.060Z,49.50
2018-06-15T10:29:53.459Z,49.50
2018-06-15T10:32:20.860Z,49.80
2018-06-15T10:34:48.269Z,48.80
2018-06-15T10:37:15.661Z,49.40
2018-06-15T10:39:43.090Z,49.40
2018-06-15T10:42:10.486Z,49.40
2018-06-15T10:44:37.890Z,49.10
2018-06-15T10:47:05.300Z,48.80
2018-06-15T10:49:32.714Z,47.90
2018-06-15T10:52:00.109Z,48.00
2018-06-15T10:54:27.531Z,48.30
2018-06-15T10:56:54.929Z,47.50
2018-06-15T10:59:22.392Z,48.60
2018-06-15T11:01:49.811Z,47.40
2018-06-15T11:04:17.224Z,47.10
2018-06-15T11:06:44.626Z,46.80
2018-06-15T11:09:12.019Z,47.20
2018-06-15T11:11:39.642Z,47.00
2018-06-15T11:14:07.061Z,46.80
2018-06-15T11:16:34.462Z,46.30
2018-06-15T11:19:01.905Z,46.10
2018-06-15T11:21:29.291Z,45.20
2018-06-15T11:23:56.707Z,44.70
2018-06-15T11:26:24.129Z,44.20
2018-06-15T11:28:51.532Z,44.20
2018-06-15T11:31:18.967Z,44.50
2018-06-15T11:33:46.363Z,44.70
2018-06-15T11:36:13.757Z,44.80
2018-06-15T11:38:41.180Z,44.30
2018-06-15T11:41:08.659Z,44.90
2018-06-15T11:43:36.020Z,46.10
2018-06-15T11:46:03.421Z,45.80
2018-06-15T11:48:30.854Z,45.40
2018-06-15T11:50:58.284Z,44.70
2018-06-15T11:53:25.703Z,44.90
2018-06-15T11:55:53.113Z,44.90
2018-06-15T11:58:20.565Z,45.20
2018-06-15T12:00:47.978Z,44.90
2018-06-15T12:03:15.387Z,44.30
2018-06-15T12:05:42.794Z,44.10
2018-06-15T12:08:10.259Z,44.70
2018-06-15T12:10:37.692Z,44.20
2018-06-15T12:13:05.104Z,44.00
2018-06-15T12:15:32.511Z,43.50
2018-06-15T12:17:59.935Z,42.70
2018-06-15T12:20:27.353Z,43.50
2018-06-15T12:22:54.952Z,43.40
2018-06-15T12:25:22.354Z,43.90
2018-06-15T12:27:49.827Z,42.60
2018-06-15T12:30:17.272Z,42.00
2018-06-15T12:32:44.744Z,42.10
2018-06-15T12:35:12.158Z,41.60
2018-06-15T12:37:39.567Z,41.10
2018-06-15T12:40:06.976Z,42.00
2018-06-15T12:42:34.413Z,42.50
2018-06-15T12:45:01.809Z,41.10
2018-06-15T12:47:29.236Z,40.60
2018-06-15T12:49:56.724Z,41.10
2018-06-15T12:52:24.111Z,42.00
2018-06-15T12:54:51.634Z,42.20
2018-06-15T12:57:19.062Z,42.00
2018-06-15T12:59:46.451Z,41.90
2018-06-15T13:02:13.884Z,41.20
2018-06-15T13:04:41.394Z,41.10
2018-06-15T13:07:08.837Z,41.00
2018-06-15T13:09:36.249Z,40.60
2018-06-15T13:12:03.657Z,40.20
2018-06-15T13:14:31.088Z,40.50
2018-06-15T13:16:58.494Z,40.20
2018-06-15T13:19:25.930Z,39.60
2018-06-15T13:21:53.347Z,39.60
2018-06-15T13:24:20.765Z,39.40
2018-06-15T13:26:48.213Z,38.90
2018-06-15T13:29:15.636Z,39.10
2018-06-15T13:31:43.098Z,38.90
2018-06-15T13:34:10.503Z,38.60
2018-06-15T13:36:37.918Z,38.50
2018-06-15T13:39:08.289Z,37.90
2018-06-15T13:41:35.718Z,37.60
2018-06-15T13:44:03.156Z,37.20
2018-06-15T13:46:30.579Z,37.70
2018-06-15T13:48:57.991Z,37.10
2018-06-15T13:51:25.431Z,37.60
2018-06-15T13:53:52.851Z,37.50
2018-06-15T13:56:20.265Z,37.60
2018-06-15T13:58:47.659Z,36.80
2018-06-15T14:01:15.088Z,36.40
2018-06-15T14:03:42.500Z,36.00
2018-06-15T14:06:09.900Z,35.70
2018-06-15T14:08:37.332Z,35.80
2018-06-15T14:11:04.908Z,36.30
2018-06-15T14:13:32.326Z,35.20
2018-06-15T14:15:59.762Z,36.30
2018-06-15T14:18:27.202Z,36.30
2018-06-15T14:20:54.599Z,35.20
2018-06-15T14:23:21.995Z,34.70
2018-06-15T14:25:49.427Z,33.20
2018-06-15T14:28:16.844Z,33.60
2018-06-15T14:30:44.259Z,34.30
2018-06-15T14:33:11.675Z,34.90
2018-06-15T14:35:39.131Z,34.70
2018-06-15T14:38:06.562Z,35.30
2018-06-15T14:40:33.980Z,35.30
2018-06-15T14:43:01.368Z,34.80
2018-06-15T14:45:28.821Z,34.30
2018-06-15T14:47:56.262Z,33.70
2018-06-15T14:50:23.690Z,33.30
2018-06-15T14:52:51.163Z,33.40
2018-06-15T14:55:18.607Z,33.00
2018-06-15T14:57:45.997Z,32.50
2018-06-15T15:00:13.472Z,32.60
2018-06-15T15:02:40.931Z,31.90
2018-06-15T15:05:08.343Z,31.60
2018-06-15T15:07:35.814Z,32.00
2018-06-15T15:10:03.255Z,32.40
2018-06-15T15:12:30.721Z,32.00
2018-06-15T15:14:58.211Z,32.60
2018-06-15T15:17:25.669Z,32.10
2018-06-15T15:19:53.092Z,32.60
2018-06-15T15:22:20.507Z,32.60
2018-06-15T15:24:47.904Z,32.70
2018-06-15T15:27:15.332Z,32.60
2018-06-15T15:29:42.751Z,33.00
2018-06-15T15:32:10.142Z,32.70
2018-06-15T15:34:37.594Z,32.70
2018-06-15T15:37:05.053Z,32.10
2018-06-15T15:39:32.491Z,32.40
2018-06-15T15:44:27.561Z,32.50
2018-06-15T15:46:54.972Z,32.50
2018-06-15T15:49:22.367Z,32.80
2018-06-15T15:51:49.784Z,32.60
2018-06-15T15:54:17.199Z,32.50
2018-06-15T15:56:44.654Z,32.40
2018-06-15T15:59:12.198Z,32.80
2018-06-15T16:01:39.611Z,32.80
2018-06-15T16:06:34.435Z,32.90
2018-06-15T16:09:01.888Z,32.60
2018-06-15T16:11:29.312Z,31.50
2018-06-15T16:13:56.731Z,31.60
2018-06-15T16:16:24.127Z,31.30
2018-06-15T16:18:51.529Z,31.80
2018-06-15T16:21:18.965Z,31.90
2018-06-15T16:23:46.354Z,32.40
2018-06-15T16:26:13.792Z,32.10
2018-06-15T16:28:41.213Z,32.70
2018-06-15T16:31:08.665Z,32.70
2018-06-15T16:33:36.061Z,32.10
2018-06-15T16:36:03.461Z,31.80
2018-06-15T16:38:30.856Z,31.90
2018-06-15T16:40:58.279Z,31.20
2018-06-15T16:43:25.845Z,31.80
2018-06-15T16:45:53.254Z,31.90
2018-06-15T16:48:20.652Z,32.60
2018-06-15T16:50:48.078Z,31.20
2018-06-15T16:53:15.957Z,31.50
2018-06-15T16:55:43.335Z,31.10
2018-06-15T16:58:10.748Z,31.40
2018-06-15T17:00:38.136Z,32.00
2018-06-15T17:03:05.620Z,31.70
2018-06-15T17:05:33.084Z,31.80
2018-06-15T17:08:00.489Z,31.80
2018-06-15T17:10:27.900Z,32.20
2018-06-15T17:12:55.311Z,32.30
2018-06-15T17:15:22.708Z,33.00
2018-06-15T17:17:50.104Z,31.40
2018-06-15T17:20:17.566Z,31.80
2018-06-15T17:22:44.993Z,31.80
2018-06-15T17:25:12.415Z,31.80
2018-06-15T17:27:39.813Z,31.90
2018-06-15T17:30:07.256Z,32.00
2018-06-15T17:32:34.672Z,30.30
2018-06-15T17:35:02.083Z,30.90
2018-06-15T17:37:29.505Z,29.70
2018-06-15T17:39:56.905Z,30.10
2018-06-15T17:42:24.319Z,29.60
2018-06-15T17:44:51.725Z,29.60
2018-06-15T17:47:19.147Z,29.80
2018-06-15T17:49:46.592Z,31.00
2018-06-15T17:52:14.004Z,31.20
2018-06-15T17:54:41.410Z,31.60
2018-06-15T17:57:08.818Z,31.20
2018-06-15T17:59:36.214Z,32.00
2018-06-15T18:04:31.019Z,31.30
2018-06-15T18:06:58.411Z,31.70
2018-06-15T18:09:25.853Z,31.60
2018-06-15T18:11:53.391Z,32.20
2018-06-15T18:16:48.488Z,33.00
2018-06-15T18:19:15.964Z,33.30
2018-06-15T18:21:43.692Z,33.30
2018-06-15T18:24:11.174Z,33.70
2018-06-15T18:26:38.611Z,34.20
2018-06-15T18:29:06.118Z,34.50
2018-06-15T18:31:33.646Z,34.70
2018-06-15T18:34:01.119Z,34.80
2018-06-15T18:36:28.567Z,34.80
2018-06-15T18:38:55.960Z,34.90
2018-06-15T18:41:24.146Z,35.20
2018-06-15T18:43:51.497Z,35.30
2018-06-15T18:46:18.968Z,35.50
2018-06-15T18:48:46.432Z,35.40
2018-06-15T18:51:13.823Z,35.60
2018-06-15T18:53:41.203Z,35.40
2018-06-15T18:56:08.627Z,35.50
2018-06-15T18:58:36.023Z,35.70
2018-06-15T19:01:03.472Z,36.00
2018-06-15T19:03:30.858Z,36.00
2018-06-15T19:05:58.258Z,36.30
2018-06-15T19:08:25.736Z,36.30
2018-06-15T19:10:53.242Z,36.50
2018-06-15T19:13:20.681Z,36.60
2018-06-15T19:15:48.092Z,36.80
2018-06-15T19:20:42.884Z,36.90
2018-06-15T19:23:10.317Z,37.20
2018-06-15T19:25:37.739Z,37.40
2018-06-15T19:28:05.164Z,37.60
2018-06-15T19:30:32.559Z,38.00
2018-06-15T19:32:59.949Z,39.10
2018-06-15T19:35:27.427Z,39.90
2018-06-15T19:40:22.219Z,40.30
2018-06-15T19:42:49.627Z,40.50
2018-06-15T19:45:17.020Z,40.60
2018-06-15T19:47:44.444Z,41.20
2018-06-15T19:50:11.858Z,41.60
2018-06-15T19:52:39.259Z,42.00
2018-06-15T19:55:07.104Z,42.60
2018-06-15T19:57:34.495Z,42.80
2018-06-15T20:00:01.918Z,43.30
2018-06-15T20:02:29.316Z,43.50
2018-06-15T20:04:56.739Z,44.00
2018-06-15T20:07:24.164Z,44.40
2018-06-15T20:09:51.558Z,44.90
2018-06-15T20:12:18.963Z,45.70
2018-06-15T20:14:46.474Z,45.70
2018-06-15T20:17:13.851Z,45.80
2018-06-15T20:19:41.236Z,46.10
2018-06-15T20:22:08.633Z,46.30
2018-06-15T20:24:36.017Z,45.90
2018-06-15T20:27:03.692Z,46.70
2018-06-15T20:29:31.088Z,47.00
2018-06-15T20:31:58.563Z,47.20
2018-06-15T20:34:25.978Z,47.70
2018-06-15T20:36:53.379Z,47.90
2018-06-15T20:39:20.783Z,47.90
2018-06-15T20:41:48.219Z,48.10
2018-06-15T20:44:15.589Z,49.10
2018-06-15T20:46:42.973Z,48.40
2018-06-15T20:49:10.374Z,48.90
2018-06-15T20:51:37.780Z,48.80
2018-06-15T20:54:05.211Z,49.00
2018-06-15T20:56:32.631Z,49.30
2018-06-15T20:59:00.151Z,50.10
2018-06-15T21:01:27.580Z,49.80
2018-06-15T21:03:55.060Z,49.90
2018-06-15T21:06:22.454Z,50.30
2018-06-15T21:08:49.842Z,50.30
2018-06-15T21:11:17.264Z,50.60
2018-06-15T21:13:44.643Z,50.80
2018-06-15T21:16:12.091Z,51.00
2018-06-15T21:18:39.473Z,51.00
2018-06-15T21:21:06.901Z,51.20
2018-06-15T21:23:34.324Z,51.20
2018-06-15T21:26:01.735Z,51.30
2018-06-15T21:28:29.127Z,51.40
2018-06-15T21:30:56.504Z,51.60
2018-06-15T21:33:23.939Z,51.80
2018-06-15T21:35:51.324Z,52.00
2018-06-15T21:38:18.719Z,52.10
2018-06-15T21:40:46.121Z,52.20
2018-06-15T21:43:13.514Z,52.50
2018-06-15T21:45:41.143Z,52.60
2018-06-15T21:48:08.561Z,52.80
2018-06-15T21:50:35.941Z,52.90
2018-06-15T21:53:03.404Z,52.90
2018-06-15T21:55:30.810Z,53.00
2018-06-15T21:57:58.244Z,53.10
2018-06-15T22:00:26.283Z,53.20
2018-06-15T22:02:53.680Z,53.30
2018-06-15T22:05:21.152Z,53.30
2018-06-15T22:07:48.586Z,53.50
2018-06-15T22:10:16.152Z,54.20
2018-06-15T22:12:43.548Z,53.60
2018-06-15T22:15:10.953Z,53.80
2018-06-15T22:17:38.394Z,53.90
2018-06-15T22:20:05.973Z,54.00
2018-06-15T22:22:33.360Z,54.00
2018-06-15T22:25:00.771Z,54.10
2018-06-15T22:27:28.172Z,54.40
2018-06-15T22:29:55.599Z,54.40
2018-06-15T22:32:23.016Z,54.40
2018-06-15T22:34:50.431Z,54.70
2018-06-15T22:37:17.892Z,54.80
2018-06-15T22:39:45.300Z,54.90
2018-06-15T22:42:12.715Z,55.00
2018-06-15T22:44:40.171Z,55.00
2018-06-15T22:47:07.581Z,55.10
2018-06-15T22:49:35.009Z,55.50
2018-06-15T22:52:02.479Z,55.50
2018-06-15T22:54:29.876Z,55.50
2018-06-15T22:56:57.340Z,55.60
2018-06-15T22:59:24.708Z,55.80
2018-06-15T23:01:52.287Z,55.90
2018-06-15T23:04:19.998Z,56.10
2018-06-15T23:06:47.388Z,56.10
2018-06-15T23:09:14.769Z,56.10
2018-06-15T23:11:42.164Z,56.20
2018-06-15T23:14:09.790Z,56.20
2018-06-15T23:16:37.184Z,56.30
2018-06-15T23:19:04.621Z,56.50
2018-06-15T23:21:32.000Z,56.70
2018-06-15T23:24:00.625Z,56.60
2018-06-15T23:26:28.012Z,56.50
2018-06-15T23:28:55.451Z,56.60
2018-06-15T23:31:22.833Z,56.80
2018-06-15T23:33:50.216Z,56.90
2018-06-15T23:36:17.612Z,57.00
2018-06-15T23:38:45.182Z,57.20
2018-06-15T23:41:12.602Z,57.30
2018-06-15T23:43:39.988Z,57.50
2018-06-15T23:46:08.403Z,57.40
2018-06-15T23:48:35.787Z,57.50
2018-06-15T23:53:31.075Z,57.60
2018-06-15T23:55:58.459Z,57.70
2018-06-15T23:58:25.836Z,57.80
